createdAt,value
2024-03-02T00:01:45.533Z,2.80
2024-03-02T00:04:12.642Z,2.97
2024-03-02T00:06:39.495Z,3.00
2024-03-02T00:09:06.547Z,2.78
2024-03-02T00:11:37.819Z,2.70
2024-03-02T00:14:04.916Z,2.60
2024-03-02T00:16:32.798Z,2.70
2024-03-02T00:19:03.356Z,3.17
2024-03-02T00:21:31.194Z,2.70
2024-03-02T00:23:58.063Z,2.90
2024-03-02T00:26:24.815Z,2.90
2024-03-02T00:28:51.921Z,2.70
2024-03-02T00:31:18.677Z,2.80
2024-03-02T00:33:46.609Z,2.80
2024-03-02T00:36:14.430Z,2.80
2024-03-02T00:38:46.095Z,2.80
2024-03-02T00:41:22.835Z,2.70
2024-03-02T00:44:02.210Z,2.72
2024-03-02T00:46:30.517Z,2.78
2024-03-02T00:48:58.231Z,2.60
2024-03-02T00:51:26.129Z,2.70
2024-03-02T00:53:57.432Z,2.60
2024-03-02T00:56:25.054Z,2.70
2024-03-02T00:58:52.711Z,2.80
2024-03-02T01:01:20.616Z,2.90
2024-03-02T01:03:47.504Z,2.72
2024-03-02T01:06:15.455Z,2.70
2024-03-02T01:08:42.540Z,2.50
2024-03-02T01:11:10.272Z,2.60
2024-03-02T01:13:37.114Z,2.62
2024-03-02T01:16:04.851Z,2.67
2024-03-02T01:18:31.989Z,2.60
2024-03-02T01:20:58.862Z,2.60
2024-03-02T01:23:25.646Z,2.75
2024-03-02T01:25:52.965Z,2.60
2024-03-02T01:28:19.940Z,2.90
2024-03-02T01:30:46.774Z,2.80
2024-03-02T01:33:14.044Z,2.80
2024-03-02T01:35:41.293Z,2.92
2024-03-02T01:38:08.019Z,3.10
2024-03-02T01:40:37.732Z,3.10
2024-03-02T01:43:08.387Z,2.95
2024-03-02T01:45:36.435Z,3.28
2024-03-02T01:48:03.276Z,3.10
2024-03-02T01:50:31.887Z,3.17
2024-03-02T01:52:58.613Z,3.20
2024-03-02T01:55:25.017Z,3.20
2024-03-02T01:57:52.467Z,3.10
2024-03-02T02:00:19.721Z,3.00
2024-03-02T02:02:47.391Z,3.05
2024-03-02T02:05:14.592Z,3.00
2024-03-02T02:07:43.989Z,3.25
2024-03-02T02:10:11.895Z,3.20
2024-03-02T02:12:38.915Z,3.40
2024-03-02T02:15:27.552Z,3.30
2024-03-02T02:17:55.551Z,3.20
2024-03-02T02:20:22.038Z,3.05
2024-03-02T02:23:01.174Z,3.20
2024-03-02T02:25:28.709Z,3.28
2024-03-02T02:27:55.974Z,3.10
2024-03-02T02:30:30.576Z,3.00
2024-03-02T02:32:57.855Z,2.90
2024-03-02T02:35:25.086Z,3.00
2024-03-02T02:37:52.636Z,3.00
2024-03-02T02:40:21.886Z,3.10
2024-03-02T02:42:48.747Z,3.45
2024-03-02T02:45:15.975Z,3.40
2024-03-02T02:47:43.718Z,3.28
2024-03-02T02:50:11.254Z,3.40
2024-03-02T02:52:41.031Z,3.30
2024-03-02T02:55:08.659Z,3.50
2024-03-02T02:57:37.253Z,3.37
2024-03-02T03:00:19.336Z,3.60
2024-03-02T03:02:47.951Z,3.35
2024-03-02T03:05:15.603Z,3.50
2024-03-02T03:07:42.306Z,3.50
2024-03-02T03:10:09.141Z,3.72
2024-03-02T03:12:35.872Z,3.65
2024-03-02T03:15:04.972Z,4.00
2024-03-02T03:17:31.919Z,3.40
2024-03-02T03:19:58.370Z,3.65
2024-03-02T03:22:25.182Z,3.90
2024-03-02T03:24:52.513Z,3.87
2024-03-02T03:27:20.529Z,4.00
2024-03-02T03:29:47.142Z,3.70
2024-03-02T03:32:14.304Z,3.72
2024-03-02T03:34:40.996Z,3.80
2024-03-02T03:37:07.770Z,3.80
2024-03-02T03:39:36.527Z,3.80
2024-03-02T03:42:03.110Z,3.65
2024-03-02T03:44:29.810Z,3.87
2024-03-02T03:46:56.226Z,3.78
2024-03-02T03:49:22.612Z,3.53
2024-03-02T03:51:49.097Z,3.30
2024-03-02T03:54:15.995Z,3.67
2024-03-02T03:56:42.398Z,3.35
2024-03-02T03:59:09.097Z,3.60
2024-03-02T04:01:35.838Z,3.15
2024-03-02T04:04:04.409Z,3.20
2024-03-02T04:06:31.020Z,3.42
2024-03-02T04:08:57.738Z,3.20
2024-03-02T04:11:24.366Z,3.15
2024-03-02T04:13:51.060Z,3.28
2024-03-02T04:16:17.762Z,3.50
2024-03-02T04:18:44.227Z,3.40
2024-03-02T04:21:10.831Z,3.50
2024-03-02T04:23:37.194Z,3.40
2024-03-02T04:26:03.724Z,3.50
2024-03-02T04:28:30.188Z,3.30
2024-03-02T04:30:56.624Z,3.17
2024-03-02T04:33:23.080Z,3.30
2024-03-02T04:35:49.810Z,3.20
2024-03-02T04:38:16.225Z,3.65
2024-03-02T04:40:42.577Z,3.60
2024-03-02T04:43:10.376Z,3.58
2024-03-02T04:45:39.290Z,3.15
2024-03-02T04:48:07.009Z,3.50
2024-03-02T04:50:33.463Z,3.25
2024-03-02T04:52:59.889Z,3.20
2024-03-02T04:56:57.129Z,3.20
2024-03-02T04:59:23.816Z,3.10
2024-03-02T05:01:50.199Z,3.25
2024-03-02T05:04:16.680Z,3.28
2024-03-02T05:06:43.142Z,2.92
2024-03-02T05:09:09.640Z,3.20
2024-03-02T05:11:59.742Z,2.90
2024-03-02T05:14:26.098Z,2.90
2024-03-02T05:16:52.460Z,3.15
2024-03-02T05:19:18.902Z,3.30
2024-03-02T05:21:45.410Z,3.20
2024-03-02T05:24:11.875Z,3.30
2024-03-02T05:26:38.278Z,3.03
2024-03-02T05:29:04.701Z,3.12
2024-03-02T05:31:31.353Z,3.00
2024-03-02T05:33:58.598Z,3.08
2024-03-02T05:36:25.287Z,3.10
2024-03-02T05:38:52.768Z,2.90
2024-03-02T05:41:19.204Z,3.20
2024-03-02T05:43:45.818Z,3.08
2024-03-02T05:46:12.476Z,3.30
2024-03-02T05:48:38.924Z,3.33
2024-03-02T05:51:05.876Z,3.15
2024-03-02T05:53:32.239Z,2.97
2024-03-02T05:55:59.792Z,3.42
2024-03-02T05:58:45.829Z,3.50
2024-03-02T06:01:12.396Z,3.10
2024-03-02T06:03:39.317Z,3.30
2024-03-02T06:06:06.334Z,3.40
2024-03-02T06:08:32.736Z,3.35
2024-03-02T06:10:59.245Z,3.20
2024-03-02T06:13:26.973Z,3.30
2024-03-02T06:15:53.620Z,3.37
2024-03-02T06:18:20.043Z,3.40
2024-03-02T06:20:46.431Z,3.40
2024-03-02T06:23:13.244Z,3.25
2024-03-02T06:25:39.895Z,3.30
2024-03-02T06:28:06.449Z,3.37
2024-03-02T06:30:32.931Z,3.25
2024-03-02T06:32:59.375Z,3.20
2024-03-02T06:35:25.994Z,3.30
2024-03-02T06:37:52.567Z,3.30
2024-03-02T06:40:19.455Z,3.33
2024-03-02T06:42:45.973Z,3.42
2024-03-02T06:45:12.543Z,3.20
2024-03-02T06:47:38.994Z,3.40
2024-03-02T06:50:05.786Z,3.40
2024-03-02T06:52:32.182Z,3.40
2024-03-02T06:54:59.181Z,3.35
2024-03-02T06:57:25.622Z,3.30
2024-03-02T06:59:54.542Z,3.10
2024-03-02T07:02:21.213Z,2.80
2024-03-02T07:04:47.635Z,2.90
2024-03-02T07:07:14.013Z,3.00
2024-03-02T07:09:40.409Z,2.92
2024-03-02T07:12:07.150Z,3.30
2024-03-02T07:15:55.342Z,3.35
2024-03-02T07:18:21.778Z,2.97
2024-03-02T07:20:50.152Z,2.80
2024-03-02T07:23:16.653Z,2.67
2024-03-02T07:28:12.299Z,2.72
2024-03-02T07:30:39.617Z,2.90
2024-03-02T07:33:07.192Z,2.92
2024-03-02T07:35:34.398Z,3.15
2024-03-02T07:38:00.838Z,3.17
2024-03-02T07:40:27.478Z,2.83
2024-03-02T07:42:54.274Z,2.47
2024-03-02T07:45:21.061Z,2.30
2024-03-02T07:47:47.501Z,2.40
2024-03-02T07:50:13.889Z,2.30
2024-03-02T07:52:40.298Z,2.40
2024-03-02T07:55:07.660Z,2.42
2024-03-02T07:57:34.099Z,2.40
2024-03-02T08:00:00.641Z,2.60
2024-03-02T08:02:27.100Z,2.80
2024-03-02T08:04:53.471Z,2.83
2024-03-02T08:07:19.868Z,2.80
2024-03-02T08:09:46.833Z,2.70
2024-03-02T08:12:13.348Z,2.92
2024-03-02T08:14:40.020Z,2.80
2024-03-02T08:17:10.305Z,4.43
2024-03-02T08:19:37.756Z,5.12
2024-03-02T08:22:04.648Z,4.85
2024-03-02T08:24:31.127Z,5.95
2024-03-02T08:26:58.283Z,4.85
2024-03-02T08:29:24.834Z,5.85
2024-03-02T08:31:51.355Z,5.87
2024-03-02T08:34:17.754Z,5.55
2024-03-02T08:36:44.167Z,5.12
2024-03-02T08:39:16.518Z,5.35
2024-03-02T08:41:44.593Z,5.87
2024-03-02T08:44:11.014Z,5.57
2024-03-02T08:46:37.972Z,6.47
2024-03-02T08:49:04.815Z,6.50
2024-03-02T08:51:31.436Z,6.18
2024-03-02T08:53:58.710Z,5.43
2024-03-02T08:56:25.512Z,4.28
2024-03-02T08:58:52.922Z,3.50
2024-03-02T09:01:20.691Z,3.50
2024-03-02T09:03:47.298Z,3.40
2024-03-02T09:06:14.544Z,3.47
2024-03-02T09:08:41.152Z,3.60
2024-03-02T09:11:07.785Z,3.80
2024-03-02T09:13:34.476Z,4.00
2024-03-02T09:16:01.204Z,3.95
2024-03-02T09:18:27.767Z,3.60
2024-03-02T09:20:54.435Z,3.97
2024-03-02T09:23:21.581Z,5.03
2024-03-02T09:25:48.037Z,3.80
2024-03-02T09:28:16.498Z,5.45
2024-03-02T09:30:43.168Z,5.43
2024-03-02T09:35:38.974Z,5.40
2024-03-02T09:38:05.711Z,5.32
2024-03-02T09:40:32.542Z,5.50
2024-03-02T09:42:59.361Z,4.78
2024-03-02T09:45:27.886Z,5.05
2024-03-02T09:47:55.626Z,5.10
2024-03-02T09:50:22.376Z,4.45
2024-03-02T09:52:49.621Z,12.48
2024-03-02T09:55:17.825Z,5.18
2024-03-02T09:57:44.351Z,5.30
2024-03-02T10:00:15.237Z,4.90
2024-03-02T10:02:42.523Z,5.15
2024-03-02T10:05:13.264Z,5.07
2024-03-02T10:07:39.663Z,5.12
2024-03-02T10:10:16.178Z,5.15
2024-03-02T10:12:43.242Z,4.72
2024-03-02T10:15:10.988Z,5.65
2024-03-02T10:17:38.246Z,5.53
2024-03-02T10:20:24.815Z,5.37
2024-03-02T10:22:51.324Z,5.50
2024-03-02T10:28:06.148Z,4.93
2024-03-02T10:30:34.557Z,5.53
2024-03-02T10:33:03.096Z,5.22
2024-03-02T10:35:29.837Z,5.40
2024-03-02T10:37:56.264Z,5.75
2024-03-02T10:40:23.740Z,5.45
2024-03-02T10:42:53.487Z,6.10
2024-03-02T10:45:21.172Z,5.72
2024-03-02T10:47:48.133Z,5.85
2024-03-02T10:50:14.874Z,5.75
2024-03-02T10:52:41.242Z,5.70
2024-03-02T10:55:10.042Z,6.05
2024-03-02T10:57:54.991Z,7.37
2024-03-02T11:00:30.697Z,5.32
2024-03-02T11:02:59.380Z,5.55
2024-03-02T11:05:32.382Z,5.55
2024-03-02T11:08:05.288Z,5.75
2024-03-02T11:10:36.665Z,6.43
2024-03-02T11:13:06.477Z,5.80
2024-03-02T11:15:33.161Z,5.68
2024-03-02T11:17:59.628Z,5.15
2024-03-02T11:20:26.481Z,5.65
2024-03-02T11:22:53.301Z,5.70
2024-03-02T11:25:27.901Z,5.10
2024-03-02T11:28:05.076Z,4.65
2024-03-02T11:30:50.209Z,4.85
2024-03-02T11:33:25.896Z,5.12
2024-03-02T11:35:53.059Z,4.40
2024-03-02T11:38:20.050Z,4.15
2024-03-02T11:40:47.156Z,4.75
2024-03-02T11:43:13.901Z,3.85
2024-03-02T11:45:44.507Z,2.95
2024-03-02T11:48:14.419Z,4.57
2024-03-02T11:50:50.920Z,5.12
2024-03-02T11:53:17.764Z,4.82
2024-03-02T11:55:47.150Z,2.90
2024-03-02T11:58:14.412Z,3.40
2024-03-02T12:00:41.297Z,4.10
2024-03-02T12:03:08.897Z,3.22
2024-03-02T12:05:35.732Z,5.12
2024-03-02T12:08:07.096Z,5.32
2024-03-02T12:10:34.547Z,4.70
2024-03-02T12:13:02.355Z,4.22
2024-03-02T12:15:30.722Z,5.50
2024-03-02T12:17:58.192Z,3.65
2024-03-02T12:20:25.426Z,3.50
2024-03-02T12:22:55.326Z,4.40
2024-03-02T12:25:22.504Z,4.78
2024-03-02T12:27:50.440Z,4.95
2024-03-02T12:30:20.048Z,4.90
2024-03-02T12:32:46.570Z,4.00
2024-03-02T12:35:17.857Z,3.55
2024-03-02T12:37:51.890Z,4.60
2024-03-02T12:40:19.605Z,3.65
2024-03-02T12:42:47.295Z,4.03
2024-03-02T12:45:14.765Z,3.40
2024-03-02T12:47:42.095Z,3.40
2024-03-02T12:50:09.213Z,2.87
2024-03-02T12:52:37.087Z,3.15
2024-03-02T12:55:07.378Z,2.87
2024-03-02T12:57:34.515Z,2.90
2024-03-02T13:00:02.310Z,2.90
2024-03-02T13:02:30.174Z,2.72
2024-03-02T13:04:57.122Z,2.60
2024-03-02T13:07:24.799Z,2.70
2024-03-02T13:09:51.622Z,3.00
2024-03-02T13:12:18.564Z,3.03
2024-03-02T13:14:45.013Z,2.80
2024-03-02T13:17:11.364Z,2.80
2024-03-02T13:19:38.060Z,2.90
2024-03-02T13:22:05.133Z,2.80
2024-03-02T13:24:31.766Z,2.90
2024-03-02T13:26:58.740Z,2.80
2024-03-02T13:29:25.166Z,2.90
2024-03-02T13:31:53.653Z,2.87
2024-03-02T13:34:20.208Z,2.97
2024-03-02T13:36:48.433Z,2.90
2024-03-02T13:39:16.075Z,2.75
2024-03-02T13:41:42.549Z,2.78
2024-03-02T13:44:09.205Z,2.58
2024-03-02T13:46:35.604Z,2.80
2024-03-02T13:49:02.722Z,2.60
2024-03-02T13:51:29.188Z,2.75
2024-03-02T13:53:55.584Z,2.65
2024-03-02T13:56:23.351Z,2.80
2024-03-02T13:58:49.984Z,2.70
2024-03-02T14:01:16.681Z,2.60
2024-03-02T14:03:43.544Z,2.90
2024-03-02T14:06:10.101Z,2.60
2024-03-02T14:08:36.963Z,2.80
2024-03-02T14:11:04.083Z,2.70
2024-03-02T14:13:31.041Z,2.70
2024-03-02T14:15:59.274Z,2.80
2024-03-02T14:18:26.023Z,2.90
2024-03-02T14:20:53.408Z,2.78
2024-03-02T14:23:22.570Z,2.80
2024-03-02T14:25:48.945Z,2.92
2024-03-02T14:28:36.688Z,2.92
2024-03-02T14:31:15.396Z,2.67
2024-03-02T14:33:43.660Z,2.60
2024-03-02T14:36:10.503Z,2.70
2024-03-02T14:38:37.142Z,2.78
2024-03-02T14:41:05.024Z,2.70
2024-03-02T14:43:31.772Z,2.80
2024-03-02T14:45:59.994Z,2.80
2024-03-02T14:48:27.129Z,2.70
2024-03-02T14:50:53.891Z,2.95
2024-03-02T14:53:20.812Z,2.75
2024-03-02T14:55:47.698Z,2.80
2024-03-02T14:58:14.741Z,2.80
2024-03-02T15:00:42.165Z,2.70
2024-03-02T15:03:09.212Z,2.60
2024-03-02T15:05:36.292Z,2.50
2024-03-02T15:08:05.183Z,2.50
2024-03-02T15:10:34.994Z,2.35
2024-03-02T15:13:02.286Z,2.40
2024-03-02T15:15:29.310Z,2.40
2024-03-02T15:17:56.372Z,2.50
2024-03-02T15:20:23.490Z,2.50
2024-03-02T15:22:53.080Z,2.70
2024-03-02T15:25:19.900Z,3.10
2024-03-02T15:27:47.188Z,3.30
2024-03-02T15:30:14.384Z,3.20
2024-03-02T15:32:41.309Z,3.45
2024-03-02T15:35:08.880Z,3.50
2024-03-02T15:37:35.995Z,3.37
2024-03-02T15:40:06.933Z,3.58
2024-03-02T15:42:34.696Z,3.62
2024-03-02T15:45:01.186Z,3.30
2024-03-02T15:47:28.165Z,3.80
2024-03-02T15:49:55.267Z,3.83
2024-03-02T15:52:22.470Z,3.90
2024-03-02T15:54:50.523Z,3.72
2024-03-02T15:57:17.414Z,3.67
2024-03-02T15:59:45.231Z,3.83
2024-03-02T16:02:11.972Z,3.80
2024-03-02T16:04:38.943Z,3.75
2024-03-02T16:07:06.337Z,3.62
2024-03-02T16:09:33.476Z,3.90
2024-03-02T16:12:00.603Z,3.97
2024-03-02T16:14:27.349Z,3.90
2024-03-02T16:16:54.364Z,3.80
2024-03-02T16:19:29.381Z,3.97
2024-03-02T16:21:59.715Z,3.65
2024-03-02T16:24:27.202Z,3.70
2024-03-02T16:26:54.024Z,4.12
2024-03-02T16:29:20.785Z,4.30
2024-03-02T16:31:47.908Z,4.43
2024-03-02T16:34:14.496Z,4.60
2024-03-02T16:36:43.275Z,4.62
2024-03-02T16:39:11.728Z,4.80
2024-03-02T16:41:41.840Z,4.62
2024-03-02T16:44:08.669Z,4.30
2024-03-02T16:46:35.407Z,4.15
2024-03-02T16:49:02.506Z,3.75
2024-03-02T16:51:29.678Z,3.67
2024-03-02T16:53:56.154Z,3.28
2024-03-02T16:56:23.295Z,3.08
2024-03-02T16:58:50.354Z,2.62
2024-03-02T17:01:17.203Z,2.45
2024-03-02T17:03:44.052Z,2.60
2024-03-02T17:06:10.949Z,4.20
2024-03-02T17:08:37.662Z,3.25
2024-03-02T17:11:05.400Z,3.12
2024-03-02T17:13:32.308Z,2.90
2024-03-02T17:15:58.987Z,2.70
2024-03-02T17:18:25.637Z,2.60
2024-03-02T17:20:52.116Z,2.53
2024-03-02T17:23:19.166Z,2.50
2024-03-02T17:25:46.418Z,2.42
2024-03-02T17:28:23.033Z,2.50
2024-03-02T17:30:50.159Z,2.67
2024-03-02T17:33:16.981Z,2.50
2024-03-02T17:35:46.082Z,2.50
2024-03-02T17:38:13.549Z,2.50
2024-03-02T17:40:39.989Z,2.50
2024-03-02T17:43:06.817Z,2.50
2024-03-02T17:45:34.436Z,2.42
2024-03-02T17:48:01.369Z,2.47
2024-03-02T17:50:28.467Z,2.40
2024-03-02T17:52:58.682Z,2.30
2024-03-02T17:55:25.112Z,2.15
2024-03-02T17:57:52.378Z,2.30
2024-03-02T18:00:21.405Z,2.20
2024-03-02T18:02:48.721Z,2.30
2024-03-02T18:05:15.550Z,2.20
2024-03-02T18:07:42.596Z,2.40
2024-03-02T18:10:09.711Z,2.20
2024-03-02T18:12:36.792Z,2.20
2024-03-02T18:15:05.009Z,2.20
2024-03-02T18:17:32.218Z,2.20
2024-03-02T18:19:59.579Z,2.40
2024-03-02T18:22:26.363Z,2.10
2024-03-02T18:24:53.481Z,2.40
2024-03-02T18:27:20.095Z,2.37
2024-03-02T18:29:47.234Z,2.50
2024-03-02T18:32:17.040Z,2.33
2024-03-02T18:34:47.681Z,2.47
2024-03-02T18:37:15.641Z,2.60
2024-03-02T18:39:42.576Z,2.50
2024-03-02T18:42:09.537Z,2.33
2024-03-02T18:44:36.964Z,2.50
2024-03-02T18:47:04.395Z,2.53
2024-03-02T18:49:31.511Z,2.40
2024-03-02T18:51:58.389Z,2.42
2024-03-02T18:54:25.597Z,2.35
2024-03-02T18:56:52.545Z,2.50
2024-03-02T18:59:18.984Z,2.37
2024-03-02T19:01:45.870Z,2.47
2024-03-02T19:04:13.071Z,2.40
2024-03-02T19:06:39.747Z,2.30
2024-03-02T19:09:07.054Z,2.37
2024-03-02T19:11:34.035Z,2.37
2024-03-02T19:14:01.046Z,2.42
2024-03-02T19:16:27.931Z,2.40
2024-03-02T19:18:55.014Z,2.30
2024-03-02T19:21:23.066Z,2.50
2024-03-02T19:23:50.286Z,2.40
2024-03-02T19:26:19.110Z,2.35
2024-03-02T19:28:46.862Z,2.40
2024-03-02T19:31:17.276Z,2.30
2024-03-02T19:33:45.491Z,2.40
2024-03-02T19:36:12.685Z,2.42
2024-03-02T19:38:40.431Z,2.40
2024-03-02T19:41:07.272Z,2.40
2024-03-02T19:43:34.093Z,2.50
2024-03-02T19:46:01.103Z,2.40
2024-03-02T19:48:28.633Z,2.50
2024-03-02T19:50:56.704Z,2.30
2024-03-02T19:53:23.525Z,2.30
2024-03-02T19:55:50.294Z,2.42
2024-03-02T19:58:17.901Z,2.37
2024-03-02T20:00:44.930Z,2.40
2024-03-02T20:03:12.516Z,2.22
2024-03-02T20:05:39.337Z,2.30
2024-03-02T20:08:07.975Z,2.25
2024-03-02T20:10:35.909Z,2.30
2024-03-02T20:13:05.233Z,2.35
2024-03-02T20:15:32.660Z,2.40
2024-03-02T20:17:59.612Z,2.20
2024-03-02T20:20:26.015Z,2.22
2024-03-02T20:22:52.737Z,2.25
2024-03-02T20:25:19.711Z,2.30
2024-03-02T20:27:47.358Z,2.30
2024-03-02T20:30:14.136Z,2.37
2024-03-02T20:32:40.656Z,2.35
2024-03-02T20:35:08.244Z,2.15
2024-03-02T20:37:34.603Z,2.40
2024-03-02T20:40:02.016Z,2.22
2024-03-02T20:42:29.326Z,2.30
2024-03-02T20:44:56.111Z,2.30
2024-03-02T20:47:23.971Z,2.30
2024-03-02T20:49:51.360Z,2.40
2024-03-02T20:52:18.506Z,2.47
2024-03-02T20:54:46.378Z,2.40
2024-03-02T20:57:13.343Z,2.30
2024-03-02T20:59:40.658Z,2.50
2024-03-02T21:02:07.421Z,2.45
2024-03-02T21:04:34.735Z,2.50
2024-03-02T21:07:01.859Z,2.53
2024-03-02T21:09:28.924Z,2.50
2024-03-02T21:11:56.487Z,2.50
2024-03-02T21:14:23.375Z,2.53
2024-03-02T21:16:51.794Z,2.30
2024-03-02T21:19:19.109Z,2.47
2024-03-02T21:21:46.023Z,2.70
2024-03-02T21:24:13.215Z,2.37
2024-03-02T21:26:42.187Z,2.50
2024-03-02T21:29:10.418Z,2.42
2024-03-02T21:31:37.676Z,2.40
2024-03-02T21:34:05.479Z,2.40
2024-03-02T21:36:32.858Z,2.30
2024-03-02T21:39:01.939Z,2.37
2024-03-02T21:41:31.118Z,2.30
2024-03-02T21:43:58.022Z,2.40
2024-03-02T21:46:24.835Z,2.30
2024-03-02T21:48:51.997Z,2.30
2024-03-02T21:51:19.375Z,2.20
2024-03-02T21:53:46.987Z,2.20
2024-03-02T21:56:16.015Z,2.30
2024-03-02T21:58:43.121Z,2.30
2024-03-02T22:01:11.073Z,2.30
2024-03-02T22:03:38.268Z,2.28
2024-03-02T22:06:04.930Z,2.28
2024-03-02T22:08:31.703Z,2.33
2024-03-02T22:10:58.466Z,2.20
2024-03-02T22:13:25.331Z,2.20
2024-03-02T22:15:52.631Z,2.20
2024-03-02T22:18:19.327Z,2.05
2024-03-02T22:20:47.835Z,2.10
2024-03-02T22:23:15.998Z,2.30
2024-03-02T22:25:43.293Z,2.20
2024-03-02T22:28:10.235Z,2.20
2024-03-02T22:30:36.989Z,2.20
2024-03-02T22:33:04.355Z,2.20
2024-03-02T22:35:31.274Z,2.20
2024-03-02T22:37:58.483Z,2.10
2024-03-02T22:40:25.874Z,2.20
2024-03-02T22:42:53.106Z,2.20
2024-03-02T22:45:19.919Z,2.00
2024-03-02T22:47:47.142Z,2.10
2024-03-02T22:50:13.767Z,2.20
2024-03-02T22:52:40.593Z,2.22
2024-03-02T22:55:08.108Z,2.20
2024-03-02T22:57:36.520Z,2.10
2024-03-02T23:00:20.395Z,2.10
2024-03-02T23:02:47.849Z,2.10
2024-03-02T23:05:14.841Z,2.10
2024-03-02T23:07:41.669Z,2.20
2024-03-02T23:10:09.028Z,2.30
2024-03-02T23:12:35.913Z,2.10
2024-03-02T23:15:02.876Z,2.05
2024-03-02T23:17:29.762Z,2.20
2024-03-02T23:19:56.606Z,2.10
2024-03-02T23:22:24.036Z,2.15
2024-03-02T23:24:51.448Z,2.30
2024-03-02T23:27:18.471Z,2.20
2024-03-02T23:29:45.344Z,2.22
2024-03-02T23:32:12.807Z,2.15
2024-03-02T23:34:39.708Z,2.10
2024-03-02T23:37:06.975Z,2.20
2024-03-02T23:39:46.889Z,2.20
2024-03-02T23:42:13.641Z,2.30
2024-03-02T23:44:40.476Z,2.30
2024-03-02T23:47:08.947Z,2.17
2024-03-02T23:49:35.805Z,2.30
2024-03-02T23:52:02.581Z,2.20
2024-03-02T23:54:29.133Z,2.20
2024-03-02T23:56:56.176Z,2.20
2024-03-02T23:59:22.782Z,2.30
